sensor_id;sensor_type;location;lat;lon;timestamp;P1;durP1;ratioP1;P2;durP2;ratioP2
38465;SDS011;24244;51.950;5.902;2022-10-22T00:00:16;7.32;;;3.47;;
38465;SDS011;24244;51.950;5.902;2022-10-22T00:02:43;7.65;;;3.40;;
38465;SDS011;24244;51.950;5.902;2022-10-22T00:05:10;7.53;;;3.63;;
38465;SDS011;24244;51.950;5.902;2022-10-22T00:07:38;7.22;;;3.20;;
38465;SDS011;24244;51.950;5.902;2022-10-22T00:10:05;6.50;;;3.13;;
38465;SDS011;24244;51.950;5.902;2022-10-22T00:12:34;9.82;;;3.50;;
38465;SDS011;24244;51.950;5.902;2022-10-22T00:15:00;6.95;;;2.92;;
38465;SDS011;24244;51.950;5.902;2022-10-22T00:17:27;8.55;;;3.47;;
38465;SDS011;24244;51.950;5.902;2022-10-22T00:19:54;7.95;;;3.20;;
38465;SDS011;24244;51.950;5.902;2022-10-22T00:22:20;7.63;;;3.30;;
38465;SDS011;24244;51.950;5.902;2022-10-22T00:24:48;6.25;;;2.92;;
38465;SDS011;24244;51.950;5.902;2022-10-22T00:27:15;7.80;;;3.38;;
38465;SDS011;24244;51.950;5.902;2022-10-22T00:29:42;6.60;;;2.90;;
38465;SDS011;24244;51.950;5.902;2022-10-22T00:32:08;9.23;;;3.70;;
38465;SDS011;24244;51.950;5.902;2022-10-22T00:34:35;7.72;;;3.60;;
38465;SDS011;24244;51.950;5.902;2022-10-22T00:37:02;9.75;;;3.50;;
38465;SDS011;24244;51.950;5.902;2022-10-22T00:39:29;9.23;;;3.58;;
38465;SDS011;24244;51.950;5.902;2022-10-22T00:41:57;7.35;;;3.70;;
38465;SDS011;24244;51.950;5.902;2022-10-22T00:47:27;7.45;;;3.47;;
38465;SDS011;24244;51.950;5.902;2022-10-22T00:49:57;6.50;;;3.10;;
38465;SDS011;24244;51.950;5.902;2022-10-22T00:52:25;8.48;;;3.38;;
38465;SDS011;24244;51.950;5.902;2022-10-22T00:54:52;7.43;;;3.60;;
38465;SDS011;24244;51.950;5.902;2022-10-22T00:57:24;6.28;;;3.00;;
38465;SDS011;24244;51.950;5.902;2022-10-22T00:59:56;7.05;;;3.03;;
38465;SDS011;24244;51.950;5.902;2022-10-22T01:02:23;7.78;;;3.03;;
38465;SDS011;24244;51.950;5.902;2022-10-22T01:04:50;8.98;;;3.53;;
38465;SDS011;24244;51.950;5.902;2022-10-22T01:07:18;9.38;;;3.35;;
38465;SDS011;24244;51.950;5.902;2022-10-22T01:09:49;7.63;;;3.80;;
38465;SDS011;24244;51.950;5.902;2022-10-22T01:12:29;9.30;;;3.72;;
38465;SDS011;24244;51.950;5.902;2022-10-22T01:15:10;8.40;;;3.55;;
38465;SDS011;24244;51.950;5.902;2022-10-22T01:17:47;8.35;;;3.72;;
38465;SDS011;24244;51.950;5.902;2022-10-22T01:20:27;7.30;;;3.83;;
38465;SDS011;24244;51.950;5.902;2022-10-22T01:23:05;7.68;;;3.80;;
38465;SDS011;24244;51.950;5.902;2022-10-22T01:25:44;8.35;;;3.80;;
38465;SDS011;24244;51.950;5.902;2022-10-22T01:28:17;8.20;;;3.55;;
38465;SDS011;24244;51.950;5.902;2022-10-22T01:30:52;7.80;;;3.92;;
38465;SDS011;24244;51.950;5.902;2022-10-22T01:33:24;7.78;;;3.80;;
38465;SDS011;24244;51.950;5.902;2022-10-22T01:35:52;8.15;;;4.00;;
38465;SDS011;24244;51.950;5.902;2022-10-22T01:38:20;10.68;;;4.25;;
38465;SDS011;24244;51.950;5.902;2022-10-22T01:40:53;7.97;;;4.03;;
38465;SDS011;24244;51.950;5.902;2022-10-22T01:43:20;8.43;;;4.15;;
38465;SDS011;24244;51.950;5.902;2022-10-22T01:45:47;8.90;;;4.53;;
38465;SDS011;24244;51.950;5.902;2022-10-22T01:48:24;8.05;;;4.50;;
38465;SDS011;24244;51.950;5.902;2022-10-22T01:51:09;8.25;;;4.47;;
38465;SDS011;24244;51.950;5.902;2022-10-22T01:53:50;9.82;;;4.15;;
38465;SDS011;24244;51.950;5.902;2022-10-22T01:56:35;8.75;;;4.40;;
38465;SDS011;24244;51.950;5.902;2022-10-22T01:59:16;7.82;;;4.20;;
38465;SDS011;24244;51.950;5.902;2022-10-22T02:01:53;9.15;;;4.28;;
38465;SDS011;24244;51.950;5.902;2022-10-22T02:04:27;9.82;;;4.70;;
38465;SDS011;24244;51.950;5.902;2022-10-22T02:07:00;8.27;;;4.65;;
38465;SDS011;24244;51.950;5.902;2022-10-22T02:09:30;9.98;;;4.85;;
38465;SDS011;24244;51.950;5.902;2022-10-22T02:12:01;10.25;;;5.20;;
38465;SDS011;24244;51.950;5.902;2022-10-22T02:14:36;9.30;;;4.88;;
38465;SDS011;24244;51.950;5.902;2022-10-22T02:17:07;7.82;;;4.38;;
38465;SDS011;24244;51.950;5.902;2022-10-22T02:19:40;9.07;;;4.88;;
38465;SDS011;24244;51.950;5.902;2022-10-22T02:22:11;9.82;;;4.88;;
38465;SDS011;24244;51.950;5.902;2022-10-22T02:24:38;8.75;;;4.95;;
38465;SDS011;24244;51.950;5.902;2022-10-22T02:27:06;9.10;;;4.60;;
38465;SDS011;24244;51.950;5.902;2022-10-22T02:29:38;9.77;;;4.65;;
38465;SDS011;24244;51.950;5.902;2022-10-22T02:32:07;10.23;;;4.93;;
38465;SDS011;24244;51.950;5.902;2022-10-22T02:34:38;8.98;;;4.60;;
38465;SDS011;24244;51.950;5.902;2022-10-22T02:39:33;9.05;;;4.32;;
38465;SDS011;24244;51.950;5.902;2022-10-22T02:42:02;9.32;;;4.28;;
38465;SDS011;24244;51.950;5.902;2022-10-22T02:44:29;8.32;;;4.38;;
38465;SDS011;24244;51.950;5.902;2022-10-22T02:46:56;9.35;;;5.00;;
38465;SDS011;24244;51.950;5.902;2022-10-22T02:49:23;8.82;;;4.63;;
38465;SDS011;24244;51.950;5.902;2022-10-22T02:51:51;9.20;;;4.53;;
38465;SDS011;24244;51.950;5.902;2022-10-22T02:54:18;9.93;;;4.70;;
38465;SDS011;24244;51.950;5.902;2022-10-22T02:56:45;9.82;;;5.10;;
38465;SDS011;24244;51.950;5.902;2022-10-22T02:59:12;11.27;;;5.15;;
38465;SDS011;24244;51.950;5.902;2022-10-22T03:01:38;10.68;;;5.30;;
38465;SDS011;24244;51.950;5.902;2022-10-22T03:04:05;9.13;;;4.90;;
38465;SDS011;24244;51.950;5.902;2022-10-22T03:06:33;9.40;;;5.20;;
38465;SDS011;24244;51.950;5.902;2022-10-22T03:09:02;10.23;;;5.43;;
38465;SDS011;24244;51.950;5.902;2022-10-22T03:11:28;8.20;;;4.90;;
38465;SDS011;24244;51.950;5.902;2022-10-22T03:13:55;8.98;;;4.93;;
38465;SDS011;24244;51.950;5.902;2022-10-22T03:16:22;8.80;;;5.10;;
38465;SDS011;24244;51.950;5.902;2022-10-22T03:18:48;8.93;;;4.45;;
38465;SDS011;24244;51.950;5.902;2022-10-22T03:21:27;9.05;;;4.70;;
38465;SDS011;24244;51.950;5.902;2022-10-22T03:23:57;8.65;;;4.70;;
38465;SDS011;24244;51.950;5.902;2022-10-22T03:26:27;8.60;;;4.75;;
38465;SDS011;24244;51.950;5.902;2022-10-22T03:28:55;9.50;;;5.05;;
38465;SDS011;24244;51.950;5.902;2022-10-22T03:31:21;8.63;;;4.72;;
38465;SDS011;24244;51.950;5.902;2022-10-22T03:33:48;8.93;;;4.65;;
38465;SDS011;24244;51.950;5.902;2022-10-22T03:36:15;9.73;;;4.97;;
38465;SDS011;24244;51.950;5.902;2022-10-22T03:38:42;10.73;;;4.82;;
38465;SDS011;24244;51.950;5.902;2022-10-22T03:41:08;9.18;;;4.80;;
38465;SDS011;24244;51.950;5.902;2022-10-22T03:43:37;9.95;;;4.68;;
38465;SDS011;24244;51.950;5.902;2022-10-22T03:48:31;8.27;;;4.20;;
38465;SDS011;24244;51.950;5.902;2022-10-22T03:50:58;10.80;;;4.60;;
38465;SDS011;24244;51.950;5.902;2022-10-22T03:53:24;8.82;;;4.28;;
38465;SDS011;24244;51.950;5.902;2022-10-22T03:55:51;8.18;;;4.10;;
38465;SDS011;24244;51.950;5.902;2022-10-22T03:58:18;9.70;;;4.45;;
38465;SDS011;24244;51.950;5.902;2022-10-22T04:00:46;8.77;;;4.50;;
38465;SDS011;24244;51.950;5.902;2022-10-22T04:03:12;8.75;;;4.65;;
38465;SDS011;24244;51.950;5.902;2022-10-22T04:05:39;9.05;;;4.38;;
38465;SDS011;24244;51.950;5.902;2022-10-22T04:08:06;8.40;;;4.15;;
38465;SDS011;24244;51.950;5.902;2022-10-22T04:10:32;9.02;;;3.83;;
38465;SDS011;24244;51.950;5.902;2022-10-22T04:12:59;9.85;;;4.53;;
38465;SDS011;24244;51.950;5.902;2022-10-22T04:15:26;7.93;;;3.90;;
38465;SDS011;24244;51.950;5.902;2022-10-22T04:17:55;12.45;;;3.92;;
38465;SDS011;24244;51.950;5.902;2022-10-22T04:20:22;8.47;;;3.63;;
38465;SDS011;24244;51.950;5.902;2022-10-22T04:22:49;8.25;;;3.70;;
38465;SDS011;24244;51.950;5.902;2022-10-22T04:25:15;7.57;;;3.30;;
38465;SDS011;24244;51.950;5.902;2022-10-22T04:27:42;7.80;;;3.55;;
38465;SDS011;24244;51.950;5.902;2022-10-22T04:30:09;8.98;;;3.78;;
38465;SDS011;24244;51.950;5.902;2022-10-22T04:32:37;8.38;;;3.13;;
38465;SDS011;24244;51.950;5.902;2022-10-22T04:35:05;6.95;;;3.42;;
38465;SDS011;24244;51.950;5.902;2022-10-22T04:37:33;9.85;;;3.72;;
38465;SDS011;24244;51.950;5.902;2022-10-22T04:39:59;9.85;;;4.05;;
38465;SDS011;24244;51.950;5.902;2022-10-22T04:42:26;9.60;;;3.50;;
38465;SDS011;24244;51.950;5.902;2022-10-22T04:44:53;8.98;;;3.80;;
38465;SDS011;24244;51.950;5.902;2022-10-22T04:47:20;7.20;;;3.20;;
38465;SDS011;24244;51.950;5.902;2022-10-22T04:49:47;10.30;;;3.67;;
38465;SDS011;24244;51.950;5.902;2022-10-22T04:52:15;9.82;;;3.58;;
38465;SDS011;24244;51.950;5.902;2022-10-22T04:54:41;9.50;;;3.92;;
38465;SDS011;24244;51.950;5.902;2022-10-22T04:57:08;9.55;;;3.95;;
38465;SDS011;24244;51.950;5.902;2022-10-22T04:59:35;9.10;;;3.83;;
38465;SDS011;24244;51.950;5.902;2022-10-22T05:02:01;9.35;;;4.00;;
38465;SDS011;24244;51.950;5.902;2022-10-22T05:04:28;8.73;;;4.13;;
38465;SDS011;24244;51.950;5.902;2022-10-22T05:06:55;8.50;;;3.90;;
38465;SDS011;24244;51.950;5.902;2022-10-22T05:09:23;10.23;;;4.35;;
38465;SDS011;24244;51.950;5.902;2022-10-22T05:11:50;8.83;;;4.03;;
38465;SDS011;24244;51.950;5.902;2022-10-22T05:14:18;10.93;;;4.45;;
38465;SDS011;24244;51.950;5.902;2022-10-22T05:16:46;9.07;;;3.95;;
38465;SDS011;24244;51.950;5.902;2022-10-22T05:19:15;12.70;;;4.35;;
38465;SDS011;24244;51.950;5.902;2022-10-22T05:21:43;9.45;;;4.32;;
38465;SDS011;24244;51.950;5.902;2022-10-22T05:24:10;11.02;;;4.45;;
38465;SDS011;24244;51.950;5.902;2022-10-22T05:26:38;8.77;;;4.20;;
38465;SDS011;24244;51.950;5.902;2022-10-22T05:29:05;10.02;;;4.10;;
38465;SDS011;24244;51.950;5.902;2022-10-22T05:31:32;10.13;;;4.25;;
38465;SDS011;24244;51.950;5.902;2022-10-22T05:33:58;10.25;;;4.07;;
38465;SDS011;24244;51.950;5.902;2022-10-22T05:36:25;10.02;;;4.32;;
38465;SDS011;24244;51.950;5.902;2022-10-22T05:38:52;9.80;;;4.40;;
38465;SDS011;24244;51.950;5.902;2022-10-22T05:41:20;9.20;;;4.18;;
38465;SDS011;24244;51.950;5.902;2022-10-22T05:43:49;9.20;;;4.28;;
38465;SDS011;24244;51.950;5.902;2022-10-22T05:46:16;11.30;;;4.40;;
38465;SDS011;24244;51.950;5.902;2022-10-22T05:48:48;10.38;;;4.13;;
38465;SDS011;24244;51.950;5.902;2022-10-22T05:51:16;10.18;;;4.00;;
38465;SDS011;24244;51.950;5.902;2022-10-22T05:53:44;7.88;;;3.80;;
38465;SDS011;24244;51.950;5.902;2022-10-22T05:56:11;8.60;;;3.97;;
38465;SDS011;24244;51.950;5.902;2022-10-22T05:58:40;9.05;;;3.90;;
38465;SDS011;24244;51.950;5.902;2022-10-22T06:01:11;8.75;;;3.45;;
38465;SDS011;24244;51.950;5.902;2022-10-22T06:03:39;9.80;;;3.53;;
38465;SDS011;24244;51.950;5.902;2022-10-22T06:06:11;8.07;;;3.95;;
38465;SDS011;24244;51.950;5.902;2022-10-22T06:08:53;9.68;;;4.00;;
38465;SDS011;24244;51.950;5.902;2022-10-22T06:11:21;11.57;;;4.57;;
38465;SDS011;24244;51.950;5.902;2022-10-22T06:13:49;9.48;;;4.00;;
38465;SDS011;24244;51.950;5.902;2022-10-22T06:16:17;9.88;;;3.72;;
38465;SDS011;24244;51.950;5.902;2022-10-22T06:18:44;9.05;;;4.00;;
38465;SDS011;24244;51.950;5.902;2022-10-22T06:21:12;10.45;;;4.05;;
38465;SDS011;24244;51.950;5.902;2022-10-22T06:23:40;8.77;;;3.97;;
38465;SDS011;24244;51.950;5.902;2022-10-22T06:26:08;11.20;;;4.22;;
38465;SDS011;24244;51.950;5.902;2022-10-22T06:28:35;10.27;;;3.72;;
38465;SDS011;24244;51.950;5.902;2022-10-22T06:31:02;9.23;;;4.43;;
38465;SDS011;24244;51.950;5.902;2022-10-22T06:33:32;8.23;;;3.60;;
38465;SDS011;24244;51.950;5.902;2022-10-22T06:36:03;8.93;;;3.85;;
38465;SDS011;24244;51.950;5.902;2022-10-22T06:38:33;10.32;;;3.85;;
38465;SDS011;24244;51.950;5.902;2022-10-22T06:41:01;11.50;;;3.85;;
38465;SDS011;24244;51.950;5.902;2022-10-22T06:43:29;10.15;;;3.70;;
38465;SDS011;24244;51.950;5.902;2022-10-22T06:45:57;8.48;;;3.53;;
38465;SDS011;24244;51.950;5.902;2022-10-22T06:48:26;9.70;;;4.15;;
38465;SDS011;24244;51.950;5.902;2022-10-22T06:50:54;10.55;;;4.07;;
38465;SDS011;24244;51.950;5.902;2022-10-22T06:53:21;10.90;;;3.78;;
38465;SDS011;24244;51.950;5.902;2022-10-22T06:55:48;8.70;;;3.47;;
38465;SDS011;24244;51.950;5.902;2022-10-22T06:58:14;7.95;;;3.67;;
38465;SDS011;24244;51.950;5.902;2022-10-22T07:00:42;9.57;;;3.95;;
38465;SDS011;24244;51.950;5.902;2022-10-22T07:03:11;12.73;;;4.22;;
38465;SDS011;24244;51.950;5.902;2022-10-22T07:05:39;8.87;;;4.20;;
38465;SDS011;24244;51.950;5.902;2022-10-22T07:08:07;11.48;;;4.38;;
38465;SDS011;24244;51.950;5.902;2022-10-22T07:13:01;10.23;;;3.63;;
38465;SDS011;24244;51.950;5.902;2022-10-22T07:15:28;8.63;;;3.83;;
38465;SDS011;24244;51.950;5.902;2022-10-22T07:17:56;11.70;;;4.33;;
38465;SDS011;24244;51.950;5.902;2022-10-22T07:20:22;10.07;;;4.10;;
38465;SDS011;24244;51.950;5.902;2022-10-22T07:22:49;9.82;;;4.05;;
38465;SDS011;24244;51.950;5.902;2022-10-22T07:25:20;14.02;;;3.97;;
38465;SDS011;24244;51.950;5.902;2022-10-22T07:27:49;11.00;;;4.25;;
38465;SDS011;24244;51.950;5.902;2022-10-22T07:30:19;8.43;;;3.55;;
38465;SDS011;24244;51.950;5.902;2022-10-22T07:32:46;8.32;;;3.75;;
38465;SDS011;24244;51.950;5.902;2022-10-22T07:35:13;8.75;;;3.53;;
38465;SDS011;24244;51.950;5.902;2022-10-22T07:37:40;8.95;;;3.42;;
38465;SDS011;24244;51.950;5.902;2022-10-22T07:40:08;10.45;;;3.45;;
38465;SDS011;24244;51.950;5.902;2022-10-22T07:42:36;11.70;;;3.65;;
38465;SDS011;24244;51.950;5.902;2022-10-22T07:45:03;9.43;;;3.43;;
38465;SDS011;24244;51.950;5.902;2022-10-22T07:47:30;7.57;;;3.40;;
38465;SDS011;24244;51.950;5.902;2022-10-22T07:49:57;9.50;;;3.95;;
38465;SDS011;24244;51.950;5.902;2022-10-22T07:52:24;11.55;;;3.50;;
38465;SDS011;24244;51.950;5.902;2022-10-22T07:54:51;9.57;;;3.38;;
38465;SDS011;24244;51.950;5.902;2022-10-22T07:57:17;11.15;;;3.90;;
38465;SDS011;24244;51.950;5.902;2022-10-22T07:59:45;10.00;;;3.80;;
38465;SDS011;24244;51.950;5.902;2022-10-22T08:02:12;8.23;;;3.50;;
38465;SDS011;24244;51.950;5.902;2022-10-22T08:04:39;9.75;;;3.30;;
38465;SDS011;24244;51.950;5.902;2022-10-22T08:07:06;9.70;;;3.47;;
38465;SDS011;24244;51.950;5.902;2022-10-22T08:09:32;8.98;;;3.25;;
38465;SDS011;24244;51.950;5.902;2022-10-22T08:12:01;8.70;;;3.28;;
38465;SDS011;24244;51.950;5.902;2022-10-22T08:14:28;9.90;;;3.58;;
38465;SDS011;24244;51.950;5.902;2022-10-22T08:16:57;10.15;;;2.90;;
38465;SDS011;24244;51.950;5.902;2022-10-22T08:19:24;9.53;;;3.30;;
38465;SDS011;24244;51.950;5.902;2022-10-22T08:21:50;9.73;;;3.13;;
38465;SDS011;24244;51.950;5.902;2022-10-22T08:24:20;9.77;;;3.00;;
38465;SDS011;24244;51.950;5.902;2022-10-22T08:26:47;8.00;;;3.40;;
38465;SDS011;24244;51.950;5.902;2022-10-22T08:29:14;10.85;;;2.90;;
38465;SDS011;24244;51.950;5.902;2022-10-22T08:31:41;9.13;;;2.97;;
38465;SDS011;24244;51.950;5.902;2022-10-22T08:34:09;7.63;;;3.08;;
38465;SDS011;24244;51.950;5.902;2022-10-22T08:36:36;10.73;;;3.10;;
38465;SDS011;24244;51.950;5.902;2022-10-22T08:39:02;8.90;;;3.03;;
38465;SDS011;24244;51.950;5.902;2022-10-22T08:41:30;9.70;;;2.83;;
38465;SDS011;24244;51.950;5.902;2022-10-22T08:49:52;11.82;;;3.00;;
38465;SDS011;24244;51.950;5.902;2022-10-22T08:52:22;7.45;;;2.53;;
38465;SDS011;24244;51.950;5.902;2022-10-22T08:54:50;9.85;;;2.80;;
38465;SDS011;24244;51.950;5.902;2022-10-22T08:57:22;8.10;;;2.75;;
38465;SDS011;24244;51.950;5.902;2022-10-22T09:00:01;10.40;;;2.72;;
38465;SDS011;24244;51.950;5.902;2022-10-22T09:02:34;9.32;;;2.60;;
38465;SDS011;24244;51.950;5.902;2022-10-22T09:05:15;9.80;;;2.53;;
38465;SDS011;24244;51.950;5.902;2022-10-22T09:07:48;9.30;;;2.67;;
38465;SDS011;24244;51.950;5.902;2022-10-22T09:10:16;9.52;;;2.75;;
38465;SDS011;24244;51.950;5.902;2022-10-22T09:12:45;8.10;;;2.75;;
38465;SDS011;24244;51.950;5.902;2022-10-22T09:15:13;8.03;;;2.50;;
38465;SDS011;24244;51.950;5.902;2022-10-22T09:17:44;10.77;;;2.67;;
38465;SDS011;24244;51.950;5.902;2022-10-22T09:20:22;9.57;;;2.50;;
38465;SDS011;24244;51.950;5.902;2022-10-22T09:22:56;7.95;;;2.45;;
38465;SDS011;24244;51.950;5.902;2022-10-22T09:25:31;8.70;;;2.15;;
38465;SDS011;24244;51.950;5.902;2022-10-22T09:28:04;8.10;;;2.90;;
38465;SDS011;24244;51.950;5.902;2022-10-22T09:30:32;11.10;;;2.90;;
38465;SDS011;24244;51.950;5.902;2022-10-22T09:33:05;7.80;;;2.22;;
38465;SDS011;24244;51.950;5.902;2022-10-22T09:35:43;6.82;;;2.22;;
38465;SDS011;24244;51.950;5.902;2022-10-22T09:38:12;7.82;;;2.20;;
38465;SDS011;24244;51.950;5.902;2022-10-22T09:40:42;9.50;;;2.50;;
38465;SDS011;24244;51.950;5.902;2022-10-22T09:43:11;9.15;;;2.63;;
38465;SDS011;24244;51.950;5.902;2022-10-22T09:45:39;7.90;;;2.20;;
38465;SDS011;24244;51.950;5.902;2022-10-22T09:48:10;6.85;;;2.13;;
38465;SDS011;24244;51.950;5.902;2022-10-22T09:50:45;8.50;;;2.13;;
38465;SDS011;24244;51.950;5.902;2022-10-22T09:53:17;10.32;;;2.65;;
38465;SDS011;24244;51.950;5.902;2022-10-22T09:55:48;5.97;;;1.90;;
38465;SDS011;24244;51.950;5.902;2022-10-22T09:58:17;7.63;;;2.05;;
38465;SDS011;24244;51.950;5.902;2022-10-22T10:00:49;7.47;;;2.03;;
38465;SDS011;24244;51.950;5.902;2022-10-22T10:03:19;8.13;;;2.33;;
38465;SDS011;24244;51.950;5.902;2022-10-22T10:05:51;10.88;;;2.67;;
38465;SDS011;24244;51.950;5.902;2022-10-22T10:08:19;8.43;;;2.50;;
38465;SDS011;24244;51.950;5.902;2022-10-22T10:10:47;8.75;;;2.22;;
38465;SDS011;24244;51.950;5.902;2022-10-22T10:13:37;6.90;;;2.33;;
38465;SDS011;24244;51.950;5.902;2022-10-22T10:16:14;10.40;;;2.90;;
38465;SDS011;24244;51.950;5.902;2022-10-22T10:18:58;7.65;;;2.38;;
38465;SDS011;24244;51.950;5.902;2022-10-22T10:21:37;9.57;;;2.67;;
38465;SDS011;24244;51.950;5.902;2022-10-22T10:24:10;9.93;;;2.53;;
38465;SDS011;24244;51.950;5.902;2022-10-22T10:26:49;7.95;;;2.40;;
38465;SDS011;24244;51.950;5.902;2022-10-22T10:29:26;7.57;;;2.90;;
38465;SDS011;24244;51.950;5.902;2022-10-22T10:32:11;8.43;;;2.53;;
38465;SDS011;24244;51.950;5.902;2022-10-22T10:34:57;8.30;;;2.70;;
38465;SDS011;24244;51.950;5.902;2022-10-22T10:37:34;8.82;;;2.97;;
38465;SDS011;24244;51.950;5.902;2022-10-22T10:40:10;8.10;;;2.67;;
38465;SDS011;24244;51.950;5.902;2022-10-22T10:42:48;10.20;;;2.90;;
38465;SDS011;24244;51.950;5.902;2022-10-22T10:45:22;9.18;;;2.72;;
38465;SDS011;24244;51.950;5.902;2022-10-22T10:48:00;9.32;;;2.72;;
38465;SDS011;24244;51.950;5.902;2022-10-22T10:50:52;11.00;;;3.45;;
38465;SDS011;24244;51.950;5.902;2022-10-22T10:53:32;10.52;;;3.30;;
38465;SDS011;24244;51.950;5.902;2022-10-22T10:56:13;8.30;;;3.20;;
38465;SDS011;24244;51.950;5.902;2022-10-22T10:58:51;10.02;;;3.65;;
38465;SDS011;24244;51.950;5.902;2022-10-22T11:01:26;12.45;;;3.78;;
38465;SDS011;24244;51.950;5.902;2022-10-22T11:04:16;8.38;;;3.53;;
38465;SDS011;24244;51.950;5.902;2022-10-22T11:06:54;8.35;;;3.22;;
38465;SDS011;24244;51.950;5.902;2022-10-22T11:09:44;8.75;;;3.40;;
38465;SDS011;24244;51.950;5.902;2022-10-22T11:12:16;9.48;;;3.10;;
38465;SDS011;24244;51.950;5.902;2022-10-22T11:14:51;9.13;;;3.05;;
38465;SDS011;24244;51.950;5.902;2022-10-22T11:17:24;11.02;;;3.38;;
38465;SDS011;24244;51.950;5.902;2022-10-22T11:20:00;8.82;;;3.20;;
38465;SDS011;24244;51.950;5.902;2022-10-22T11:22:32;8.63;;;2.90;;
38465;SDS011;24244;51.950;5.902;2022-10-22T11:25:14;9.63;;;3.15;;
38465;SDS011;24244;51.950;5.902;2022-10-22T11:27:46;10.52;;;2.80;;
38465;SDS011;24244;51.950;5.902;2022-10-22T11:30:18;8.02;;;2.50;;
38465;SDS011;24244;51.950;5.902;2022-10-22T11:32:46;8.15;;;2.45;;
38465;SDS011;24244;51.950;5.902;2022-10-22T11:35:17;8.88;;;2.70;;
38465;SDS011;24244;51.950;5.902;2022-10-22T11:37:51;12.73;;;2.63;;
38465;SDS011;24244;51.950;5.902;2022-10-22T11:40:29;8.75;;;2.42;;
38465;SDS011;24244;51.950;5.902;2022-10-22T11:45:30;7.00;;;2.15;;
38465;SDS011;24244;51.950;5.902;2022-10-22T11:48:05;8.85;;;2.20;;
38465;SDS011;24244;51.950;5.902;2022-10-22T11:50:47;9.23;;;2.22;;
38465;SDS011;24244;51.950;5.902;2022-10-22T11:53:20;10.85;;;2.50;;
38465;SDS011;24244;51.950;5.902;2022-10-22T11:55:58;8.65;;;2.35;;
38465;SDS011;24244;51.950;5.902;2022-10-22T11:58:37;10.40;;;2.40;;
38465;SDS011;24244;51.950;5.902;2022-10-22T12:04:15;7.80;;;2.20;;
38465;SDS011;24244;51.950;5.902;2022-10-22T12:06:57;7.05;;;2.10;;
38465;SDS011;24244;51.950;5.902;2022-10-22T12:09:25;9.80;;;2.05;;
38465;SDS011;24244;51.950;5.902;2022-10-22T12:12:09;6.65;;;1.88;;
38465;SDS011;24244;51.950;5.902;2022-10-22T12:14:50;7.93;;;2.00;;
38465;SDS011;24244;51.950;5.902;2022-10-22T12:17:19;8.05;;;2.17;;
38465;SDS011;24244;51.950;5.902;2022-10-22T12:19:47;6.93;;;1.90;;
38465;SDS011;24244;51.950;5.902;2022-10-22T12:22:19;8.38;;;2.50;;
38465;SDS011;24244;51.950;5.902;2022-10-22T12:24:50;8.40;;;2.42;;
38465;SDS011;24244;51.950;5.902;2022-10-22T12:27:21;8.27;;;1.90;;
38465;SDS011;24244;51.950;5.902;2022-10-22T12:29:52;7.72;;;1.95;;
38465;SDS011;24244;51.950;5.902;2022-10-22T12:32:20;6.18;;;2.05;;
38465;SDS011;24244;51.950;5.902;2022-10-22T12:34:48;9.10;;;2.33;;
38465;SDS011;24244;51.950;5.902;2022-10-22T12:37:16;8.02;;;2.08;;
38465;SDS011;24244;51.950;5.902;2022-10-22T12:39:44;8.02;;;2.20;;
38465;SDS011;24244;51.950;5.902;2022-10-22T12:42:11;8.77;;;2.35;;
38465;SDS011;24244;51.950;5.902;2022-10-22T12:44:43;11.63;;;2.15;;
38465;SDS011;24244;51.950;5.902;2022-10-22T12:47:11;10.45;;;1.95;;
38465;SDS011;24244;51.950;5.902;2022-10-22T12:49:41;11.30;;;2.17;;
38465;SDS011;24244;51.950;5.902;2022-10-22T12:52:12;8.10;;;2.22;;
38465;SDS011;24244;51.950;5.902;2022-10-22T12:54:45;9.00;;;2.08;;
38465;SDS011;24244;51.950;5.902;2022-10-22T12:59:46;10.23;;;2.50;;
38465;SDS011;24244;51.950;5.902;2022-10-22T13:02:16;8.40;;;1.92;;
38465;SDS011;24244;51.950;5.902;2022-10-22T13:05:03;8.85;;;2.13;;
38465;SDS011;24244;51.950;5.902;2022-10-22T13:07:42;8.45;;;2.05;;
38465;SDS011;24244;51.950;5.902;2022-10-22T13:10:17;8.23;;;2.15;;
38465;SDS011;24244;51.950;5.902;2022-10-22T13:12:48;10.52;;;2.30;;
38465;SDS011;24244;51.950;5.902;2022-10-22T13:18:02;7.93;;;2.55;;
38465;SDS011;24244;51.950;5.902;2022-10-22T13:20:51;9.73;;;2.33;;
38465;SDS011;24244;51.950;5.902;2022-10-22T13:23:19;9.07;;;2.60;;
38465;SDS011;24244;51.950;5.902;2022-10-22T13:25:55;8.75;;;2.50;;
38465;SDS011;24244;51.950;5.902;2022-10-22T13:28:24;10.48;;;2.40;;
38465;SDS011;24244;51.950;5.902;2022-10-22T13:30:54;8.90;;;2.50;;
38465;SDS011;24244;51.950;5.902;2022-10-22T13:33:23;10.68;;;2.30;;
38465;SDS011;24244;51.950;5.902;2022-10-22T13:35:52;9.52;;;2.65;;
38465;SDS011;24244;51.950;5.902;2022-10-22T13:38:21;9.07;;;2.60;;
38465;SDS011;24244;51.950;5.902;2022-10-22T13:40:52;8.45;;;2.42;;
38465;SDS011;24244;51.950;5.902;2022-10-22T13:43:19;7.47;;;2.50;;
38465;SDS011;24244;51.950;5.902;2022-10-22T13:45:51;9.93;;;2.35;;
38465;SDS011;24244;51.950;5.902;2022-10-22T13:48:21;10.18;;;2.67;;
38465;SDS011;24244;51.950;5.902;2022-10-22T13:50:50;8.80;;;2.47;;
38465;SDS011;24244;51.950;5.902;2022-10-22T13:53:18;10.05;;;2.80;;
38465;SDS011;24244;51.950;5.902;2022-10-22T13:55:50;12.07;;;2.85;;
38465;SDS011;24244;51.950;5.902;2022-10-22T13:58:20;9.25;;;3.00;;
38465;SDS011;24244;51.950;5.902;2022-10-22T14:00:56;9.82;;;2.72;;
38465;SDS011;24244;51.950;5.902;2022-10-22T14:03:25;11.35;;;2.83;;
38465;SDS011;24244;51.950;5.902;2022-10-22T14:05:55;10.65;;;2.92;;
38465;SDS011;24244;51.950;5.902;2022-10-22T14:08:23;8.52;;;2.42;;
38465;SDS011;24244;51.950;5.902;2022-10-22T14:10:51;10.05;;;2.70;;
38465;SDS011;24244;51.950;5.902;2022-10-22T14:13:19;9.85;;;3.22;;
38465;SDS011;24244;51.950;5.902;2022-10-22T14:15:49;9.23;;;2.55;;
38465;SDS011;24244;51.950;5.902;2022-10-22T14:18:19;8.73;;;2.88;;
38465;SDS011;24244;51.950;5.902;2022-10-22T14:20:51;9.75;;;3.00;;
38465;SDS011;24244;51.950;5.902;2022-10-22T14:23:20;9.65;;;3.05;;
38465;SDS011;24244;51.950;5.902;2022-10-22T14:25:49;8.43;;;2.60;;
38465;SDS011;24244;51.950;5.902;2022-10-22T14:28:16;7.35;;;2.42;;
38465;SDS011;24244;51.950;5.902;2022-10-22T14:30:43;9.73;;;2.92;;
38465;SDS011;24244;51.950;5.902;2022-10-22T14:33:11;7.65;;;2.60;;
38465;SDS011;24244;51.950;5.902;2022-10-22T14:35:41;10.02;;;2.88;;
38465;SDS011;24244;51.950;5.902;2022-10-22T14:38:08;7.43;;;2.67;;
38465;SDS011;24244;51.950;5.902;2022-10-22T14:40:35;10.45;;;3.13;;
38465;SDS011;24244;51.950;5.902;2022-10-22T14:43:04;10.38;;;3.20;;
38465;SDS011;24244;51.950;5.902;2022-10-22T14:45:31;9.13;;;2.58;;
38465;SDS011;24244;51.950;5.902;2022-10-22T14:47:58;8.43;;;2.97;;
38465;SDS011;24244;51.950;5.902;2022-10-22T14:50:25;10.27;;;2.92;;
38465;SDS011;24244;51.950;5.902;2022-10-22T14:52:55;8.70;;;3.17;;
38465;SDS011;24244;51.950;5.902;2022-10-22T14:55:24;9.65;;;2.58;;
38465;SDS011;24244;51.950;5.902;2022-10-22T14:57:52;8.43;;;2.88;;
38465;SDS011;24244;51.950;5.902;2022-10-22T15:00:19;10.30;;;2.90;;
38465;SDS011;24244;51.950;5.902;2022-10-22T15:02:46;8.48;;;2.45;;
38465;SDS011;24244;51.950;5.902;2022-10-22T15:05:14;10.55;;;2.72;;
38465;SDS011;24244;51.950;5.902;2022-10-22T15:07:41;8.70;;;3.53;;
38465;SDS011;24244;51.950;5.902;2022-10-22T15:10:10;10.27;;;3.17;;
38465;SDS011;24244;51.950;5.902;2022-10-22T15:12:37;9.25;;;2.53;;
38465;SDS011;24244;51.950;5.902;2022-10-22T15:15:04;8.85;;;2.80;;
38465;SDS011;24244;51.950;5.902;2022-10-22T15:17:31;9.90;;;2.67;;
38465;SDS011;24244;51.950;5.902;2022-10-22T15:19:58;8.85;;;2.85;;
38465;SDS011;24244;51.950;5.902;2022-10-22T15:22:29;8.25;;;2.70;;
38465;SDS011;24244;51.950;5.902;2022-10-22T15:24:56;8.82;;;2.95;;
38465;SDS011;24244;51.950;5.902;2022-10-22T15:27:24;9.32;;;2.90;;
38465;SDS011;24244;51.950;5.902;2022-10-22T15:29:51;8.75;;;2.90;;